»·PEaware :: N5858B KAJO-KVCV

N5858B :: KAJO-KVCV

FLIGHT INFORMATION

Flight Status: Arrived
Operator: Privately registered:
United States
More flights under this callsign
Pilot: Bobby R. (5974)
Aircraft: BEECH AIRCRAFT BARON
(BE58)
More flights by this aircraft type
Origin: KAJO Corona Mun
United States
Destination: KVCV Socal Logistics
United States
More flights between these airports :: More routes between these airports
Route: +PDZ V442 APLES
File this flight plan on PilotEdge
Remarks: ODP from KAJO; VOR / DME RWY 17 into KVCV
Altitude:
(Current/Filed)
9,000ft
Speed:
(Current/Filed)
180kts
Departed: 16-Oct-20 06:57 PM
Arrived: 16-Oct-20 07:58 PM
Distance/Time
Traveled:
43nm/1:00
Distance/Time
To Go:
Arrived

Flight Plot

Page will automatically refresh every two minutes.


Map Options




Map Legend


Flown Route
Filed Route
Departure Airport
Arrival Airport
Navaid (VOR, NDB)
Fix

Horizontal Profiles

Position Reports

Time Latitude Longitude Heading Altitude Ground
Speed
16-Oct-20 18:33 33.896958 -117.596876 268 537ft 0kts
16-Oct-20 18:34 33.896958 -117.596876 268 537ft 0kts
16-Oct-20 18:35 33.896958 -117.596876 268 537ft 0kts
16-Oct-20 18:36 33.896958 -117.596876 268 537ft 0kts
16-Oct-20 18:37 33.896958 -117.596876 268 537ft 0kts
16-Oct-20 18:38 33.896958 -117.596876 268 537ft 0kts
16-Oct-20 18:40 33.896958 -117.596876 268 537ft 0kts
16-Oct-20 18:41 33.896958 -117.596876 268 537ft 0kts
16-Oct-20 18:42 33.896958 -117.596876 268 537ft 0kts
16-Oct-20 18:43 33.896958 -117.596876 268 537ft 0kts
16-Oct-20 18:44 33.896958 -117.596876 268 537ft 0kts
16-Oct-20 18:45 33.896958 -117.596876 268 537ft 0kts
16-Oct-20 18:46 33.896958 -117.596876 268 537ft 0kts
16-Oct-20 18:47 33.896958 -117.596876 268 537ft 0kts
16-Oct-20 18:48 33.896958 -117.596876 268 537ft 0kts
16-Oct-20 18:49 33.896958 -117.596876 268 537ft 0kts
16-Oct-20 18:50 33.896958 -117.596876 268 537ft 0kts
16-Oct-20 18:51 33.896958 -117.596876 268 537ft 0kts
16-Oct-20 18:52 33.896958 -117.596876 268 537ft 0kts
16-Oct-20 18:53 33.896958 -117.596883 268 537ft 1kts
16-Oct-20 18:54 33.897313 -117.597386 335 537ft 0kts
16-Oct-20 18:55 33.897313 -117.597386 335 537ft 0kts
16-Oct-20 18:56 33.897314 -117.597387 335 537ft 0kts
16-Oct-20 18:57 33.897210 -117.613890 268 937ft 108kts
16-Oct-20 18:58 33.919413 -117.621390 70 1261ft 177kts
16-Oct-20 18:58 33.913754 -117.580881 112 1938ft 128kts
16-Oct-20 18:59 33.912250 -117.550883 50 2889ft 83kts
16-Oct-20 19:00 33.924722 -117.521256 36 3953ft 125kts
16-Oct-20 19:01 33.960499 -117.509534 13 4941ft 141kts
16-Oct-20 19:02 33.965028 -117.478378 176 5729ft 155kts
16-Oct-20 19:03 33.931543 -117.507943 230 6193ft 152kts
16-Oct-20 19:04 33.914286 -117.549977 311 6214ft 142kts
16-Oct-20 19:05 33.947200 -117.534536 42 6176ft 147kts
16-Oct-20 19:06 33.977710 -117.499617 43 6062ft 154kts
16-Oct-20 19:07 33.956928 -117.477665 221 5907ft 158kts
16-Oct-20 19:08 33.926576 -117.516070 233 5879ft 157kts
16-Oct-20 19:09 33.923724 -117.555335 357 6210ft 142kts
16-Oct-20 19:10 33.955130 -117.526897 42 7060ft 147kts
16-Oct-20 19:11 33.976628 -117.487321 116 7733ft 158kts
16-Oct-20 19:12 33.942326 -117.498005 229 8529ft 153kts
16-Oct-20 19:13 33.913447 -117.537008 251 8984ft 167kts
16-Oct-20 19:14 33.940250 -117.546951 42 9021ft 146kts
16-Oct-20 19:15 33.968318 -117.511569 45 8998ft 145kts
16-Oct-20 19:16 34.000887 -117.482392 23 9020ft 151kts
16-Oct-20 19:17 34.041528 -117.469304 22 9083ft 156kts
16-Oct-20 19:18 34.083717 -117.443723 26 9092ft 176kts
16-Oct-20 19:19 34.128185 -117.415707 26 9033ft 183kts
16-Oct-20 19:20 34.173305 -117.387437 25 9028ft 182kts
16-Oct-20 19:21 34.218459 -117.358926 25 9027ft 182kts
16-Oct-20 19:22 34.263593 -117.330393 26 9044ft 181kts
16-Oct-20 19:23 34.308338 -117.302069 26 9078ft 181kts
16-Oct-20 19:24 34.353303 -117.273569 26 9099ft 182kts
16-Oct-20 19:25 34.395455 -117.246819 26 8915ft 186kts
16-Oct-20 19:26 34.444617 -117.215588 26 8913ft 183kts
16-Oct-20 19:27 34.489866 -117.186805 26 8936ft 182kts
16-Oct-20 19:28 34.534695 -117.158220 26 8949ft 176kts
16-Oct-20 19:29 34.580853 -117.143498 3 8939ft 171kts
16-Oct-20 19:30 34.629858 -117.146688 350 8522ft 183kts
16-Oct-20 19:31 34.679524 -117.165570 335 7711ft 189kts
16-Oct-20 19:32 34.723766 -117.199363 321 6762ft 189kts
16-Oct-20 19:33 34.757951 -117.243354 307 6483ft 169kts
16-Oct-20 19:34 34.780692 -117.291417 294 6537ft 160kts
16-Oct-20 19:35 34.794143 -117.344694 282 6241ft 174kts
16-Oct-20 19:36 34.771593 -117.382495 159 5128ft 184kts
16-Oct-20 19:37 34.726390 -117.378540 183 4227ft 133kts
16-Oct-20 19:38 34.694313 -117.381250 184 4285ft 105kts
16-Oct-20 19:39 34.665113 -117.383855 184 3578ft 105kts
16-Oct-20 19:40 34.633547 -117.386532 183 3160ft 108kts
16-Oct-20 19:41 34.602072 -117.391651 221 3875ft 128kts
16-Oct-20 19:42 34.606395 -117.432688 283 5010ft 140kts
16-Oct-20 19:43 34.614197 -117.478395 283 5572ft 136kts
16-Oct-20 19:44 34.621724 -117.523446 283 5965ft 135kts
16-Oct-20 19:45 34.629543 -117.570434 283 6045ft 148kts
16-Oct-20 19:46 34.638031 -117.621057 283 6024ft 154kts
16-Oct-20 19:47 34.651297 -117.669348 335 5941ft 152kts
16-Oct-20 19:48 34.667965 -117.636502 99 6021ft 153kts
16-Oct-20 19:49 34.642898 -117.591060 135 5476ft 174kts
16-Oct-20 19:50 34.607198 -117.549680 135 4837ft 180kts
16-Oct-20 19:51 34.571118 -117.507607 135 3968ft 176kts
16-Oct-20 19:52 34.549338 -117.463327 70 3704ft 147kts
16-Oct-20 19:53 34.576270 -117.431386 44 3808ft 132kts
16-Oct-20 19:54 34.605000 -117.404893 4 3814ft 129kts
16-Oct-20 19:55 34.639972 -117.401713 37 3316ft 130kts
16-Oct-20 19:56 34.629179 -117.384407 221 3081ft 111kts
16-Oct-20 19:57 34.609190 -117.386681 179 2829ft 37kts
16-Oct-20 19:58 34.602227 -117.386606 179 2841ft 18kts
16-Oct-20 19:59 34.596277 -117.386541 179 2853ft 24kts
16-Oct-20 20:00 34.594879 -117.385166 94 2855ft 1kts
16-Oct-20 20:01 34.592878 -117.381580 135 2859ft 20kts
16-Oct-20 20:02 34.588881 -117.376513 129 2870ft 19kts
16-Oct-20 20:03 34.587722 -117.375724 316 2871ft 0kts
16-Oct-20 20:04 34.587722 -117.375724 316 2871ft 0kts
16-Oct-20 20:05 34.587722 -117.375724 316 2871ft 0kts
16-Oct-20 20:06 34.587722 -117.375724 316 2871ft 0kts

Navigation Log

Ident Type
Flight plan parsing failed, navigation log unavailable